Time;durP1;ratioP1;P1;durP2;ratioP2;P2;SDS_P1;SDS_P2;PMS_P1;PMS_P2;Temp;Humidity;BMP_temperature;BMP_pressure;BME280_temperature;BME280_humidity;BME280_pressure;Samples;Min_cycle;Max_cycle;Signal;HPM_P1;HPM_P2
2021/12/18 00:02:11;;;;;;;;;;;;;;;3.50;58.52;95534.25;5113449;28;1057;-48
2021/12/18 00:04:38;;;;;;;;;;;;;;;3.50;57.62;95534.25;5113982;28;1051;-48
2021/12/18 00:07:04;;;;;;;;;;;;;;;3.46;58.21;95529.31;5114150;28;1906;-48
2021/12/18 00:09:32;;;;;;;;;;;;;;;3.41;58.88;95539.34;5113796;28;1017;-48
2021/12/18 00:11:59;;;;;;;;;;;;;;;3.33;58.50;95538.09;5114018;28;1066;-48
2021/12/18 00:14:25;;;;;;;;;;;;;;;3.30;58.22;95532.16;5113849;28;964;-48
2021/12/18 00:16:51;;;;;;;;;;;;;;;3.27;58.82;95532.41;5113659;28;1000;-48
2021/12/18 00:19:23;;;;;;;;;;;;;;;3.36;58.52;95538.81;5113847;28;1041;-48
2021/12/18 00:21:49;;;;;;;;;;;;;;;3.43;58.80;95543.56;5113590;28;1061;-48
2021/12/18 00:24:15;;;;;;;;;;;;;;;3.43;58.11;95546.22;5113834;28;1013;-48
2021/12/18 00:26:41;;;;;;;;;;;;;;;3.39;58.54;95542.09;5113394;28;1984;-48
2021/12/18 00:29:07;;;;;;;;;;;;;;;3.27;58.67;95545.63;5113311;28;1398;-48
2021/12/18 00:31:33;;;;;;;;;;;;;;;3.30;58.56;95556.81;5113439;28;1040;-48
2021/12/18 00:33:59;;;;;;;;;;;;;;;3.21;59.10;95549.53;5113673;28;992;-48
2021/12/18 00:36:25;;;;;;;;;;;;;;;3.30;58.72;95548.91;5116774;28;1047;-48
2021/12/18 00:38:51;;;;;;;;;;;;;;;3.37;58.47;95545.81;5117136;28;1044;-48
2021/12/18 00:44:02;;;;;;;;;;;;;;;3.42;58.03;95549.81;5116984;28;1049;-48
2021/12/18 00:46:40;;;;;;;;;;;;;;;3.28;58.64;95553.44;5116976;28;1905;-48
2021/12/18 00:49:07;;;;;;;;;;;;;;;3.17;59.26;95550.69;5116893;28;1032;-48
2021/12/18 00:51:34;;;;;;;;;;;;;;;3.15;59.71;95549.09;5117160;28;928;-48
2021/12/18 00:54:00;;;;;;;;;;;;;;;3.28;58.71;95558.72;5117086;28;960;-48
2021/12/18 00:56:26;;;;;;;;;;;;;;;3.40;58.68;95553.53;5116673;28;1108;-48
2021/12/18 00:58:52;;;;;;;;;;;;;;;3.36;59.16;95552.03;5116957;28;981;-48
2021/12/18 01:01:20;;;;;;;;;;;;;;;3.31;59.25;95555.03;5116775;28;981;-48
2021/12/18 01:03:48;;;;;;;;;;;;;;;3.31;59.69;95550.56;5116624;28;1007;-48
2021/12/18 01:06:15;;;;;;;;;;;;;;;3.22;59.84;95540.63;5116827;28;1996;-48
2021/12/18 01:08:41;;;;;;;;;;;;;;;3.27;59.31;95543.81;5116461;28;1037;-48
2021/12/18 01:14:34;;;;;;;;;;;;;;;3.43;59.20;95554.16;5116399;28;1062;-48
2021/12/18 01:22:41;;;;;;;;;;;;;;;3.41;58.94;95545.47;5114261;28;1479;-48
2021/12/18 01:25:09;;;;;;;;;;;;;;;2.99;60.93;95533.47;5116266;28;1914;-48
2021/12/18 01:27:35;;;;;;;;;;;;;;;3.07;60.40;95531.13;5116170;28;985;-48
2021/12/18 01:30:05;;;;;;;;;;;;;;;3.13;60.91;95531.56;5116489;28;1276;-48
2021/12/18 01:32:31;;;;;;;;;;;;;;;3.14;60.41;95527.13;5116174;28;1067;-48
2021/12/18 01:34:57;;;;;;;;;;;;;;;3.20;59.64;95521.41;5116027;28;1053;-48
2021/12/18 01:37:23;;;;;;;;;;;;;;;3.15;60.06;95522.66;5115960;28;1048;-48
2021/12/18 01:39:52;;;;;;;;;;;;;;;2.96;60.68;95518.69;5115946;28;1053;-48
2021/12/18 01:53:21;;;;;;;;;;;;;;;2.87;60.51;95509.59;5115858;28;1055;-48
2021/12/18 01:55:50;;;;;;;;;;;;;;;2.80;60.32;95508.31;5115903;28;1004;-48
2021/12/18 01:58:21;;;;;;;;;;;;;;;2.89;60.64;95512.97;5115739;28;1037;-48
2021/12/18 02:00:47;;;;;;;;;;;;;;;2.88;60.71;95503.38;5115750;28;1032;-48
2021/12/18 02:03:13;;;;;;;;;;;;;;;2.81;60.71;95510.00;5115397;28;2002;-48
2021/12/18 02:05:40;;;;;;;;;;;;;;;2.76;60.77;95500.72;5115594;28;1980;-48
2021/12/18 02:08:07;;;;;;;;;;;;;;;2.69;61.65;95487.94;5115533;28;945;-48
2021/12/18 02:10:44;;;;;;;;;;;;;;;2.77;60.82;95495.34;5115612;28;977;-48
2021/12/18 02:21:30;;;;;;;;;;;;;;;2.83;60.67;95500.19;5115081;28;1089;-48
2021/12/18 02:23:56;;;;;;;;;;;;;;;2.79;60.73;95500.47;5115123;28;1063;-48
2021/12/18 02:26:23;;;;;;;;;;;;;;;2.79;60.92;95500.47;5115029;28;1918;-48
2021/12/18 02:28:51;;;;;;;;;;;;;;;2.81;60.96;95502.09;5115102;28;1336;-48
2021/12/18 02:31:18;;;;;;;;;;;;;;;2.78;61.53;95506.72;5115360;28;1048;-48
2021/12/18 02:33:46;;;;;;;;;;;;;;;2.78;61.55;95504.09;5115190;28;1017;-48
2021/12/18 02:36:21;;;;;;;;;;;;;;;2.85;60.97;95508.00;5115150;28;1051;-48
2021/12/18 02:41:37;;;;;;;;;;;;;;;2.95;61.63;95511.69;5114770;28;985;-48
2021/12/18 02:44:07;;;;;;;;;;;;;;;2.99;60.69;95502.59;5114660;28;1021;-48
2021/12/18 02:46:33;;;;;;;;;;;;;;;2.94;60.67;95510.03;5114615;28;1983;-48
2021/12/18 02:49:05;;;;;;;;;;;;;;;2.93;61.06;95503.03;5114883;28;1040;-48
2021/12/18 02:51:31;;;;;;;;;;;;;;;2.82;61.63;95509.03;5114862;28;1054;-48
2021/12/18 02:53:57;;;;;;;;;;;;;;;2.90;60.73;95512.03;5114735;28;1068;-48
2021/12/18 02:56:23;;;;;;;;;;;;;;;2.93;61.39;95503.88;5114405;28;1335;-48
2021/12/18 02:58:51;;;;;;;;;;;;;;;2.98;60.85;95513.28;5114214;28;1043;-48
2021/12/18 03:01:19;;;;;;;;;;;;;;;2.94;60.97;95512.66;5114642;28;1039;-48
2021/12/18 03:03:46;;;;;;;;;;;;;;;2.88;60.90;95510.41;5114648;28;1034;-48
2021/12/18 03:09:48;;;;;;;;;;;;;;;2.86;61.23;95504.41;5114655;28;1036;-48
2021/12/18 03:25:43;;;;;;;;;;;;;;;2.76;61.45;95513.91;5114171;28;1901;-48
2021/12/18 03:28:10;;;;;;;;;;;;;;;2.64;61.82;95508.53;5114193;28;987;-48
2021/12/18 03:30:36;;;;;;;;;;;;;;;2.70;61.50;95515.19;5113948;28;1268;-48
2021/12/18 03:33:03;;;;;;;;;;;;;;;2.72;60.99;95514.13;5114084;28;1095;-48
2021/12/18 03:35:30;;;;;;;;;;;;;;;2.77;61.61;95516.47;5114109;28;1025;-48
2021/12/18 03:37:56;;;;;;;;;;;;;;;2.80;61.57;95523.31;5114205;28;1055;-48
2021/12/18 03:40:23;;;;;;;;;;;;;;;2.86;61.08;95530.81;5129875;28;1048;-48
2021/12/18 03:42:49;;;;;;;;;;;;;;;2.70;61.74;95529.22;5113875;28;1103;-48
2021/12/18 03:45:17;;;;;;;;;;;;;;;2.80;60.89;95526.78;5113786;28;1906;-48
2021/12/18 03:47:43;;;;;;;;;;;;;;;2.79;61.08;95530.41;5113815;28;1011;-48
2021/12/18 03:50:09;;;;;;;;;;;;;;;2.80;61.21;95529.44;5114199;28;996;-48
2021/12/18 03:52:35;;;;;;;;;;;;;;;2.76;61.23;95527.13;5114121;28;1222;-48
2021/12/18 03:55:02;;;;;;;;;;;;;;;2.67;61.55;95529.41;5113843;28;969;-48
2021/12/18 03:57:28;;;;;;;;;;;;;;;2.60;61.68;95528.16;5113867;28;1040;-48
2021/12/18 03:59:54;;;;;;;;;;;;;;;2.66;61.33;95532.19;5113745;28;1040;-48
2021/12/18 04:02:21;;;;;;;;;;;;;;;2.67;61.35;95533.84;5114028;28;965;-48
2021/12/18 04:04:47;;;;;;;;;;;;;;;2.71;61.58;95530.06;5113721;28;1028;-48
2021/12/18 04:07:14;;;;;;;;;;;;;;;2.70;61.92;95533.66;5113874;28;1913;-48
2021/12/18 04:09:40;;;;;;;;;;;;;;;2.59;62.12;95536.19;5114016;28;973;-48
2021/12/18 04:12:07;;;;;;;;;;;;;;;2.69;61.41;95538.09;5117673;27;1892;-48
2021/12/18 04:14:33;;;;;;;;;;;;;;;2.77;61.91;95548.16;5117804;28;992;-48
2021/12/18 04:16:59;;;;;;;;;;;;;;;2.71;62.03;95552.06;5117508;28;940;-48
2021/12/18 04:19:25;;;;;;;;;;;;;;;2.74;61.59;95548.34;5117769;28;983;-48
2021/12/18 04:21:51;;;;;;;;;;;;;;;2.72;61.91;95555.53;5117634;28;968;-48
2021/12/18 04:24:17;;;;;;;;;;;;;;;2.70;62.11;95560.91;5117276;28;1037;-48
2021/12/18 04:26:43;;;;;;;;;;;;;;;2.82;61.57;95566.31;5117599;28;1922;-48
2021/12/18 04:29:09;;;;;;;;;;;;;;;2.84;61.86;95564.41;5117107;28;1256;-48
2021/12/18 04:31:36;;;;;;;;;;;;;;;2.96;61.18;95571.53;5117523;28;1093;-48
2021/12/18 04:34:02;;;;;;;;;;;;;;;2.93;61.52;95577.00;5117156;28;1061;-48
2021/12/18 04:36:28;;;;;;;;;;;;;;;2.88;62.15;95579.09;5117480;28;1036;-48
2021/12/18 04:38:54;;;;;;;;;;;;;;;2.87;61.97;95574.78;5116936;28;1127;-48
2021/12/18 04:41:23;;;;;;;;;;;;;;;2.77;62.66;95576.31;5117150;28;1096;-48
2021/12/18 04:43:51;;;;;;;;;;;;;;;2.82;61.81;95574.22;5116900;28;1041;-48
2021/12/18 04:46:17;;;;;;;;;;;;;;;2.85;62.51;95582.78;5117158;28;1910;-48
2021/12/18 04:48:43;;;;;;;;;;;;;;;2.77;62.30;95582.47;5117268;28;1044;-48
2021/12/18 04:51:09;;;;;;;;;;;;;;;2.91;61.50;95587.66;5117026;28;1056;-48
2021/12/18 04:53:35;;;;;;;;;;;;;;;2.68;64.26;95598.94;5117041;28;1067;-48
2021/12/18 04:56:02;;;;;;;;;;;;;;;2.40;65.46;95603.38;5116694;28;1053;-48
2021/12/18 04:58:28;;;;;;;;;;;;;;;2.36;66.26;95608.97;5116772;28;993;-48
2021/12/18 05:00:55;;;;;;;;;;;;;;;2.30;67.26;95607.56;5116672;28;1024;-48
2021/12/18 05:03:21;;;;;;;;;;;;;;;2.37;67.64;95608.84;5116913;27;1036;-48
2021/12/18 05:05:47;;;;;;;;;;;;;;;2.41;67.50;95615.66;5116391;28;1992;-48
2021/12/18 05:08:13;;;;;;;;;;;;;;;2.42;67.35;95616.47;5116453;28;1104;-48
2021/12/18 05:10:39;;;;;;;;;;;;;;;2.39;67.73;95621.94;5116816;28;1067;-48
2021/12/18 05:13:05;;;;;;;;;;;;;;;2.43;66.63;95620.78;5116427;28;1111;-48
2021/12/18 05:15:32;;;;;;;;;;;;;;;2.49;65.68;95623.91;5116551;28;981;-48
2021/12/18 05:17:58;;;;;;;;;;;;;;;2.55;64.87;95627.94;5116369;28;1037;-48
2021/12/18 05:20:24;;;;;;;;;;;;;;;2.71;64.22;95627.75;5115697;28;1053;-48
2021/12/18 05:22:50;;;;;;;;;;;;;;;2.74;64.25;95640.78;5116463;28;1024;-48
2021/12/18 05:25:16;;;;;;;;;;;;;;;2.72;64.77;95637.38;5116159;28;1983;-48
2021/12/18 05:27:42;;;;;;;;;;;;;;;2.80;64.47;95644.78;5116279;28;1045;-48
2021/12/18 05:30:09;;;;;;;;;;;;;;;2.69;64.46;95637.56;5115854;28;1332;-48
2021/12/18 05:32:35;;;;;;;;;;;;;;;2.71;64.84;95639.19;5116417;28;972;-48
2021/12/18 05:35:02;;;;;;;;;;;;;;;2.72;64.99;95646.16;5116185;28;1020;-48
2021/12/18 05:37:43;;;;;;;;;;;;;;;2.70;65.52;95650.69;5116198;28;1068;-48
2021/12/18 05:40:10;;;;;;;;;;;;;;;2.77;65.53;95652.91;5115949;28;1115;-48
2021/12/18 05:42:36;;;;;;;;;;;;;;;2.87;64.72;95646.09;5115694;28;1974;-48
2021/12/18 05:45:04;;;;;;;;;;;;;;;2.84;64.36;95651.56;5115556;28;1906;-48
2021/12/18 05:47:31;;;;;;;;;;;;;;;2.88;64.32;95655.69;5115790;28;1317;-48
2021/12/18 05:49:57;;;;;;;;;;;;;;;2.77;65.01;95655.56;5115784;28;992;-48
2021/12/18 05:52:24;;;;;;;;;;;;;;;2.82;64.53;95659.59;5115959;28;937;-48
2021/12/18 05:54:50;;;;;;;;;;;;;;;2.76;65.01;95657.34;5115611;28;1322;-48
2021/12/18 05:57:16;;;;;;;;;;;;;;;2.67;65.50;95663.22;5115801;28;1024;-48
2021/12/18 05:59:43;;;;;;;;;;;;;;;2.58;66.41;95663.81;5115764;28;1051;-48
2021/12/18 06:02:09;;;;;;;;;;;;;;;2.61;66.09;95668.91;5115775;27;1066;-48
2021/12/18 06:04:35;;;;;;;;;;;;;;;2.77;65.92;95660.84;5115570;28;1002;-48
2021/12/18 06:07:05;;;;;;;;;;;;;;;2.79;66.11;95665.09;5115702;28;1910;-48
2021/12/18 06:09:33;;;;;;;;;;;;;;;2.89;65.29;95663.53;5115343;28;1095;-48
2021/12/18 06:12:00;;;;;;;;;;;;;;;2.95;65.13;95667.53;5115306;28;968;-48
2021/12/18 06:14:27;;;;;;;;;;;;;;;2.99;65.31;95662.91;5115474;28;980;-48
2021/12/18 06:16:53;;;;;;;;;;;;;;;2.95;64.99;95674.63;5115224;28;1056;-53
2021/12/18 06:19:19;;;;;;;;;;;;;;;2.89;65.18;95676.72;5115529;28;965;-47
2021/12/18 06:21:46;;;;;;;;;;;;;;;2.88;65.46;95685.63;5115378;28;1024;-47
2021/12/18 06:24:12;;;;;;;;;;;;;;;2.89;65.90;95686.44;5115186;28;941;-48
2021/12/18 06:26:38;;;;;;;;;;;;;;;2.85;65.23;95688.44;5114876;28;1992;-48
2021/12/18 06:29:04;;;;;;;;;;;;;;;2.94;65.39;95684.38;5115034;27;1419;-48
2021/12/18 06:31:31;;;;;;;;;;;;;;;3.00;65.42;95688.38;5115285;28;1016;-48
2021/12/18 06:33:57;;;;;;;;;;;;;;;2.99;65.35;95689.31;5114161;28;1032;-48
2021/12/18 06:36:23;;;;;;;;;;;;;;;2.85;65.29;95690.25;5115036;28;1020;-48
2021/12/18 06:38:49;;;;;;;;;;;;;;;2.84;65.57;95694.66;5115280;28;968;-48
2021/12/18 06:44:56;;;;;;;;;;;;;;;2.87;65.97;95705.03;3599206;28;2074;-49
2021/12/18 06:47:22;;;;;;;;;;;;;;;2.91;65.63;95710.97;5114322;28;1910;-48
2021/12/18 06:49:48;;;;;;;;;;;;;;;2.96;65.43;95713.28;5114426;28;1049;-48
2021/12/18 06:52:14;;;;;;;;;;;;;;;3.05;65.17;95708.25;5114806;28;1075;-48
2021/12/18 06:54:40;;;;;;;;;;;;;;;3.09;65.16;95703.59;5114712;28;1045;-48
2021/12/18 06:57:06;;;;;;;;;;;;;;;3.19;64.75;95709.13;5114337;28;1093;-48
2021/12/18 06:59:32;;;;;;;;;;;;;;;3.25;64.47;95709.56;5114738;28;1058;-48
2021/12/18 07:01:58;;;;;;;;;;;;;;;3.18;65.08;95707.44;5114320;28;1028;-48
2021/12/18 07:04:24;;;;;;;;;;;;;;;3.19;64.91;95702.06;5114347;28;1063;-48
2021/12/18 07:06:52;;;;;;;;;;;;;;;3.19;65.02;95710.00;5114494;28;1910;-48
2021/12/18 07:09:25;;;;;;;;;;;;;;;3.30;65.56;95715.41;5114472;28;1028;-48
2021/12/18 07:11:51;;;;;;;;;;;;;;;3.42;64.38;95720.81;5114225;28;1105;-49
2021/12/18 07:14:17;;;;;;;;;;;;;;;3.51;64.10;95714.91;5114217;28;1103;-49
2021/12/18 07:16:43;;;;;;;;;;;;;;;3.62;63.90;95716.81;5114099;28;973;-48
2021/12/18 07:19:09;;;;;;;;;;;;;;;3.77;63.44;95718.41;5114418;28;977;-49
2021/12/18 07:21:35;;;;;;;;;;;;;;;3.69;62.66;95721.56;5114287;28;1089;-48
2021/12/18 07:24:01;;;;;;;;;;;;;;;3.75;63.04;95719.47;5114128;28;1120;-49
2021/12/18 07:26:29;;;;;;;;;;;;;;;3.79;62.44;95711.19;5114272;28;1997;-48
2021/12/18 07:28:55;;;;;;;;;;;;;;;3.83;62.35;95720.66;5113839;28;1314;-47
2021/12/18 07:31:21;;;;;;;;;;;;;;;4.02;62.25;95733.44;5113855;28;1062;-48
2021/12/18 07:33:47;;;;;;;;;;;;;;;3.99;61.77;95738.09;5113979;28;1100;-49
2021/12/18 07:36:14;;;;;;;;;;;;;;;3.93;62.37;95739.38;5114219;28;974;-48
2021/12/18 07:38:40;;;;;;;;;;;;;;;3.83;62.27;95746.22;5114152;28;983;-48
2021/12/18 07:41:06;;;;;;;;;;;;;;;3.70;63.38;95747.09;5114048;28;1063;-48
2021/12/18 07:43:32;;;;;;;;;;;;;;;3.65;63.01;95758.91;5114071;28;1009;-48
2021/12/18 07:45:59;;;;;;;;;;;;;;;3.47;63.26;95761.88;5117796;28;1922;-48
2021/12/18 07:48:25;;;;;;;;;;;;;;;3.55;63.14;95777.22;5118065;28;1065;-49
2021/12/18 07:50:51;;;;;;;;;;;;;;;3.69;63.69;95778.91;5118251;28;1084;-50
2021/12/18 07:53:17;;;;;;;;;;;;;;;3.68;64.01;95780.72;5118058;28;1045;-50
2021/12/18 07:55:43;;;;;;;;;;;;;;;3.82;63.85;95785.06;5118122;28;1048;-55
2021/12/18 07:58:09;;;;;;;;;;;;;;;4.11;62.88;95779.56;5117894;28;973;-49
2021/12/18 08:00:35;;;;;;;;;;;;;;;4.43;61.84;95777.31;5118039;28;1158;-49
2021/12/18 08:03:01;;;;;;;;;;;;;;;4.98;60.84;95776.97;5118162;28;1005;-49
2021/12/18 08:05:27;;;;;;;;;;;;;;;5.44;59.37;95774.47;5117972;28;1917;-49
2021/12/18 08:07:53;;;;;;;;;;;;;;;5.68;59.00;95776.22;5117771;27;1068;-48
2021/12/18 08:10:20;;;;;;;;;;;;;;;5.86;58.43;95782.78;5117937;28;1044;-49
2021/12/18 08:12:46;;;;;;;;;;;;;;;5.93;57.11;95780.50;5117877;28;993;-49
2021/12/18 08:17:47;;;;;;;;;;;;;;;6.11;56.37;95786.25;2947956;22;4841;-47
2021/12/18 08:20:13;;;;;;;;;;;;;;;5.92;55.41;95785.91;5017839;28;1274;-47
2021/12/18 08:22:39;;;;;;;;;;;;;;;5.87;56.49;95795.06;5017718;28;1297;-47
2021/12/18 08:25:06;;;;;;;;;;;;;;;5.81;55.67;95789.41;5017353;28;1914;-47
2021/12/18 08:27:32;;;;;;;;;;;;;;;5.98;56.39;95796.97;5017358;28;1966;-47
2021/12/18 08:29:59;;;;;;;;;;;;;;;6.22;55.08;95799.53;5017309;28;971;-52
2021/12/18 08:32:25;;;;;;;;;;;;;;;5.96;56.00;95801.53;5017028;28;1029;-46
2021/12/18 08:34:51;;;;;;;;;;;;;;;5.93;55.29;95801.72;5017422;28;1444;-46
2021/12/18 08:37:18;;;;;;;;;;;;;;;5.88;55.77;95803.91;5017062;28;1050;-47
2021/12/18 08:39:44;;;;;;;;;;;;;;;5.74;54.50;95799.63;5017037;28;1005;-46
2021/12/18 08:42:10;;;;;;;;;;;;;;;5.51;56.25;95803.16;5016763;28;990;-50
2021/12/18 08:44:36;;;;;;;;;;;;;;;5.57;56.83;95800.06;5016994;28;1013;-46
2021/12/18 08:47:02;;;;;;;;;;;;;;;5.31;56.24;95809.94;5016562;28;1996;-46
2021/12/18 08:49:28;;;;;;;;;;;;;;;4.77;57.43;95805.88;5016618;28;1232;-46
2021/12/18 08:51:55;;;;;;;;;;;;;;;4.47;59.01;95804.44;5017232;28;1345;-45
2021/12/18 08:54:21;;;;;;;;;;;;;;;4.52;57.64;95801.47;5016837;28;1037;-45
2021/12/18 08:56:47;;;;;;;;;;;;;;;4.56;58.48;95809.09;5015603;28;1028;-46
2021/12/18 08:59:13;;;;;;;;;;;;;;;4.58;57.75;95804.53;5016782;28;1058;-46
2021/12/18 09:01:40;;;;;;;;;;;;;;;4.56;57.43;95800.31;5016587;28;993;-46
2021/12/18 09:04:06;;;;;;;;;;;;;;;4.65;57.84;95802.31;5016576;28;1044;-46
2021/12/18 09:06:32;;;;;;;;;;;;;;;4.68;57.69;95808.22;5016489;28;1914;-45
2021/12/18 09:08:58;;;;;;;;;;;;;;;4.59;58.90;95800.06;5016502;28;1192;-46
2021/12/18 09:11:24;;;;;;;;;;;;;;;4.64;57.19;95806.72;5016351;28;1041;-46
2021/12/18 09:13:50;;;;;;;;;;;;;;;4.56;58.31;95808.25;5016483;28;1035;-46
2021/12/18 09:16:17;;;;;;;;;;;;;;;4.63;58.01;95799.75;5016081;28;1048;-47
2021/12/18 09:18:43;;;;;;;;;;;;;;;4.69;58.05;95795.81;5015899;28;1052;-47
2021/12/18 09:21:09;;;;;;;;;;;;;;;4.66;58.63;95799.53;5016373;28;1046;-47
2021/12/18 09:23:35;;;;;;;;;;;;;;;4.69;57.54;95799.31;5016175;28;1042;-46
2021/12/18 09:26:01;;;;;;;;;;;;;;;4.76;58.00;95793.56;5016254;28;1906;-46
2021/12/18 09:28:27;;;;;;;;;;;;;;;5.00;57.55;95790.97;5016061;28;1057;-47
2021/12/18 09:30:54;;;;;;;;;;;;;;;5.37;56.67;95788.25;5016032;28;982;-47
2021/12/18 09:33:20;;;;;;;;;;;;;;;5.52;55.13;95792.44;5015861;28;1132;-47
2021/12/18 09:35:46;;;;;;;;;;;;;;;5.55;55.38;95792.19;5015726;28;1058;-47
2021/12/18 09:38:12;;;;;;;;;;;;;;;5.31;55.00;95786.06;5016010;28;985;-47
2021/12/18 09:40:39;;;;;;;;;;;;;;;5.09;55.88;95783.19;5015593;28;1049;-47
2021/12/18 09:43:05;;;;;;;;;;;;;;;5.20;56.88;95787.72;5015753;28;1048;-46
2021/12/18 09:45:31;;;;;;;;;;;;;;;5.30;56.19;95795.84;5015455;28;1993;-47
2021/12/18 09:47:57;;;;;;;;;;;;;;;6.63;52.70;95786.63;5015737;28;1036;-47
2021/12/18 09:50:25;;;;;;;;;;;;;;;5.86;53.83;95790.75;5015558;28;1919;-47
2021/12/18 09:52:51;;;;;;;;;;;;;;;5.58;53.64;95794.63;5015801;28;974;-47
2021/12/18 09:55:18;;;;;;;;;;;;;;;6.90;51.37;95796.03;5015500;28;1061;-47
2021/12/18 09:57:45;;;;;;;;;;;;;;;6.18;53.29;95790.09;5015709;28;987;-47
2021/12/18 10:00:13;;;;;;;;;;;;;;;5.57;54.48;95792.09;5015173;28;1030;-47
2021/12/18 10:02:39;;;;;;;;;;;;;;;5.40;54.95;95788.88;5015840;28;1034;-47
2021/12/18 10:05:05;;;;;;;;;;;;;;;5.22;55.55;95793.75;5015454;28;1025;-47
2021/12/18 10:07:31;;;;;;;;;;;;;;;5.10;57.10;95794.63;5015449;28;1036;-47
2021/12/18 10:10:00;;;;;;;;;;;;;;;5.01;57.79;95787.38;5015454;28;974;-47
2021/12/18 10:12:28;;;;;;;;;;;;;;;4.96;57.58;95787.69;5015164;28;1061;-46
2021/12/18 10:14:58;;;;;;;;;;;;;;;4.79;57.26;95788.91;5014977;28;1065;-46
2021/12/18 10:17:27;;;;;;;;;;;;;;;4.52;57.61;95790.88;5015317;28;1133;-46
2021/12/18 10:20:13;;;;;;;;;;;;;;;4.49;57.73;95792.78;5015008;28;1041;-46
2021/12/18 10:22:43;;;;;;;;;;;;;;;4.38;58.57;95795.34;5015154;28;1046;-47
2021/12/18 10:25:10;;;;;;;;;;;;;;;4.50;58.54;95791.00;5014969;28;1914;-46
2021/12/18 10:27:37;;;;;;;;;;;;;;;4.59;58.09;95786.81;5014915;28;989;-46
2021/12/18 10:30:21;;;;;;;;;;;;;;;4.68;58.11;95784.38;5015081;28;1036;-46
2021/12/18 10:32:58;;;;;;;;;;;;;;;4.78;57.01;95779.28;5014921;28;1112;-46
2021/12/18 10:35:41;;;;;;;;;;;;;;;5.03;56.48;95785.47;5014630;28;1072;-46
2021/12/18 10:38:07;;;;;;;;;;;;;;;5.12;55.82;95778.63;5014872;28;1073;-46
2021/12/18 10:40:41;;;;;;;;;;;;;;;5.05;55.39;95775.59;5014536;28;1053;-46
2021/12/18 10:43:07;;;;;;;;;;;;;;;5.00;55.16;95775.91;5014721;28;982;-46
2021/12/18 10:45:34;;;;;;;;;;;;;;;4.94;56.21;95773.72;5014563;28;1989;-46
2021/12/18 10:48:03;;;;;;;;;;;;;;;4.89;56.15;95773.19;5014543;28;1044;-46
2021/12/18 10:50:48;;;;;;;;;;;;;;;4.86;56.10;95779.56;5014409;28;1104;-46
2021/12/18 10:53:25;;;;;;;;;;;;;;;4.70;57.01;95776.31;5015025;28;985;-47
2021/12/18 10:55:53;;;;;;;;;;;;;;;4.74;55.88;95772.47;5014243;28;1034;-47
2021/12/18 10:58:29;;;;;;;;;;;;;;;4.65;57.63;95774.00;5014459;28;1058;-47
2021/12/18 11:01:00;;;;;;;;;;;;;;;4.63;56.74;95767.09;5014703;28;986;-47
2021/12/18 11:03:38;;;;;;;;;;;;;;;4.54;57.00;95767.78;5014443;28;998;-47
2021/12/18 11:06:04;;;;;;;;;;;;;;;4.50;56.84;95770.66;5014312;28;1902;-47
2021/12/18 11:08:30;;;;;;;;;;;;;;;4.55;56.39;95774.75;5014324;28;982;-47
2021/12/18 11:13:51;;;;;;;;;;;;;;;4.57;56.57;95762.25;5014413;28;1018;-47
2021/12/18 11:16:18;;;;;;;;;;;;;;;4.50;56.08;95756.56;5014226;28;981;-46
2021/12/18 11:18:45;;;;;;;;;;;;;;;4.57;56.79;95759.59;5013522;28;1115;-46
2021/12/18 11:21:11;;;;;;;;;;;;;;;4.53;55.81;95756.31;5014129;28;1057;-46
2021/12/18 11:23:48;;;;;;;;;;;;;;;4.46;54.98;95755.94;5014022;28;978;-45
2021/12/18 11:26:15;;;;;;;;;;;;;;;4.47;56.51;95760.25;5022569;28;1906;-46
2021/12/18 11:28:47;;;;;;;;;;;;;;;4.29;57.53;95758.94;5032684;28;3748;-47
2021/12/18 11:31:14;;;;;;;;;;;;;;;4.23;56.94;95761.97;5034226;28;1036;-46
2021/12/18 11:33:40;;;;;;;;;;;;;;;4.20;58.07;95752.47;5033719;28;994;-47
2021/12/18 11:36:08;;;;;;;;;;;;;;;4.22;57.93;95755.00;5033748;28;963;-47
2021/12/18 11:38:35;;;;;;;;;;;;;;;4.33;57.95;95757.75;5033517;28;1048;-46
2021/12/18 11:41:02;;;;;;;;;;;;;;;4.21;56.68;95756.81;5033671;28;1001;-46
2021/12/18 11:43:35;;;;;;;;;;;;;;;4.26;56.57;95753.84;5033787;28;1042;-46
2021/12/18 11:46:02;;;;;;;;;;;;;;;4.18;57.34;95754.38;5033722;28;1986;-46
2021/12/18 11:48:48;;;;;;;;;;;;;;;4.17;57.64;95750.03;5033685;28;994;-46
2021/12/18 11:51:15;;;;;;;;;;;;;;;4.02;58.56;95751.97;5033264;28;1308;-46
2021/12/18 11:53:41;;;;;;;;;;;;;;;3.95;59.36;95755.97;5033621;28;1036;-46
2021/12/18 11:56:08;;;;;;;;;;;;;;;3.88;59.27;95752.06;5033416;28;1084;-46
2021/12/18 11:58:40;;;;;;;;;;;;;;;4.00;58.98;95755.66;5033647;28;1052;-46
2021/12/18 12:01:25;;;;;;;;;;;;;;;4.23;59.00;95756.69;5033441;28;1017;-47
2021/12/18 12:03:51;;;;;;;;;;;;;;;4.28;58.18;95749.28;5033210;28;1037;-46
2021/12/18 12:06:30;;;;;;;;;;;;;;;4.48;56.70;95754.03;5033497;28;1906;-46
2021/12/18 12:09:38;;;;;;;;;;;;;;;4.53;57.89;95748.38;5033376;28;970;-46
2021/12/18 12:12:08;;;;;;;;;;;;;;;4.61;57.52;95751.34;5033215;28;1219;-46
2021/12/18 12:14:34;;;;;;;;;;;;;;;4.64;56.71;95747.63;5033448;28;980;-46
2021/12/18 12:17:08;;;;;;;;;;;;;;;4.49;56.65;95745.09;5033474;28;1012;-46
2021/12/18 12:19:34;;;;;;;;;;;;;;;4.57;57.81;95741.06;5033090;28;1125;-46
2021/12/18 12:22:01;;;;;;;;;;;;;;;4.67;58.74;95736.81;5033440;28;977;-46
2021/12/18 12:24:28;;;;;;;;;;;;;;;4.71;57.60;95748.88;5032858;28;949;-46
2021/12/18 12:27:14;;;;;;;;;;;;;;;4.64;58.12;95745.81;5019357;28;1910;-47
2021/12/18 12:29:45;;;;;;;;;;;;;;;4.71;57.92;95738.28;5013374;28;1731;-46
2021/12/18 12:32:12;;;;;;;;;;;;;;;4.88;57.72;95740.53;5016234;28;1056;-45
2021/12/18 12:34:38;;;;;;;;;;;;;;;4.94;57.65;95739.25;5017045;28;1133;-45
2021/12/18 12:37:23;;;;;;;;;;;;;;;5.07;57.25;95732.09;5017159;28;1038;-45
2021/12/18 12:39:53;;;;;;;;;;;;;;;5.08;56.53;95727.63;5016936;28;1030;-45
2021/12/18 12:42:19;;;;;;;;;;;;;;;4.96;57.86;95717.94;5016866;28;1227;-45
2021/12/18 12:45:00;;;;;;;;;;;;;;;4.84;58.36;95723.19;5017113;28;1009;-46
2021/12/18 12:47:27;;;;;;;;;;;;;;;4.79;58.48;95721.84;5016654;28;1967;-45
2021/12/18 12:49:56;;;;;;;;;;;;;;;4.65;58.47;95728.97;5016692;28;1093;-46
2021/12/18 12:52:24;;;;;;;;;;;;;;;4.60;58.47;95740.84;5016894;28;1033;-45
2021/12/18 12:54:59;;;;;;;;;;;;;;;4.64;58.71;95737.03;5016520;28;1043;-44
2021/12/18 12:57:30;;;;;;;;;;;;;;;4.60;58.72;95736.41;5016653;28;982;-45
2021/12/18 12:59:58;;;;;;;;;;;;;;;4.58;59.46;95737.47;5016821;28;991;-45
2021/12/18 13:02:26;;;;;;;;;;;;;;;4.66;59.27;95737.75;5016402;28;1096;-45
2021/12/18 13:05:18;;;;;;;;;;;;;;;4.84;57.84;95723.19;5016407;28;1030;-45
2021/12/18 13:07:49;;;;;;;;;;;;;;;5.15;56.87;95728.03;5014347;28;1149;-45
2021/12/18 13:10:18;;;;;;;;;;;;;;;5.30;56.93;95723.41;5016291;28;985;-45
2021/12/18 13:12:58;;;;;;;;;;;;;;;5.21;56.15;95716.97;5016179;28;1104;-45
2021/12/18 13:15:24;;;;;;;;;;;;;;;5.03;57.19;95724.50;5016254;28;1041;-45
2021/12/18 13:18:04;;;;;;;;;;;;;;;5.13;57.05;95722.84;5016132;28;1087;-46
2021/12/18 13:20:39;;;;;;;;;;;;;;;5.31;55.53;95730.38;5016439;28;1048;-45
2021/12/18 13:23:05;;;;;;;;;;;;;;;5.18;55.37;95731.31;5015854;28;1040;-45
2021/12/18 13:25:31;;;;;;;;;;;;;;;4.79;54.03;95741.22;5016227;28;1914;-46
2021/12/18 13:28:03;;;;;;;;;;;;;;;4.54;54.11;95744.78;5016295;28;1041;-45
2021/12/18 13:30:33;;;;;;;;;;;;;;;4.38;55.56;95755.63;5016196;28;1018;-45
2021/12/18 13:33:01;;;;;;;;;;;;;;;4.13;58.57;95753.00;5016454;28;1045;-46
2021/12/18 13:35:29;;;;;;;;;;;;;;;3.63;60.30;95759.03;5015809;28;1053;-45
2021/12/18 13:37:55;;;;;;;;;;;;;;;3.27;63.63;95749.13;5015549;28;1025;-45
2021/12/18 13:40:21;;;;;;;;;;;;;;;2.82;67.65;95745.91;5015940;28;1034;-45
2021/12/18 13:42:47;;;;;;;;;;;;;;;2.46;70.83;95752.59;5015453;28;1061;-45
2021/12/18 13:45:13;;;;;;;;;;;;;;;2.44;71.48;95755.31;5015794;28;991;-45
2021/12/18 13:47:41;;;;;;;;;;;;;;;2.54;69.46;95760.84;5015775;28;1907;-45
2021/12/18 13:50:11;;;;;;;;;;;;;;;2.71;70.66;95771.22;5015822;28;1986;-45
2021/12/18 13:52:42;;;;;;;;;;;;;;;2.73;71.46;95792.22;5015279;28;1977;-45
2021/12/18 13:55:20;;;;;;;;;;;;;;;2.77;68.85;95766.47;5015764;28;1137;-45
2021/12/18 13:58:00;;;;;;;;;;;;;;;2.93;67.79;95785.69;5015448;28;1991;-45
2021/12/18 14:00:26;;;;;;;;;;;;;;;3.08;68.67;95792.59;5015306;28;1296;-45
2021/12/18 14:02:52;;;;;;;;;;;;;;;3.02;69.73;95813.31;5015260;28;1026;-45
2021/12/18 14:05:18;;;;;;;;;;;;;;;2.83;70.44;95818.91;5015091;28;1910;-45
2021/12/18 14:07:45;;;;;;;;;;;;;;;2.65;71.72;95810.34;5015465;28;1132;-45
2021/12/18 14:10:11;;;;;;;;;;;;;;;2.38;73.48;95812.94;5015284;28;949;-45
2021/12/18 14:12:37;;;;;;;;;;;;;;;2.23;76.05;95815.56;5015077;28;1038;-45
2021/12/18 14:15:05;;;;;;;;;;;;;;;2.23;76.65;95818.19;5015387;28;1028;-45